To NAV CANADA Home Page Login to a new session Search on AWWS site Feedback and Comments Disclaimer Vers la page française équivalente Tips FAQ What's new on the site To the Forecasts and Observations / NOTAM section To "File a Flight Plan" website Publications and other links Update of the User's profile FIC Telephone Numbers My Weather Data Folder Route Weather Data Regional Weather Data Local Weather Data To the Forecasts and Observations / NOTAM section
Request Generated 09/29/2016 at 13:28:57 UTC . Weather information available at that time is displayed.

METAR/TAF

SAINT JOHN/NB    

METAR CYSJ 291300Z 01016KT 12SM BKN014 11/08 A3047 RMK SC7 WIND
ESTIMATED WND ESTD SLP324=
SPECI CYSJ 291230Z 02015G22KT 12SM BKN014 10/08 A3047 RMK SC6 SLP322=
METAR CYSJ 291200Z 02016G24KT 15SM FEW012 BKN035 BKN260 10/08 A3045
RMK SC2SC3CI2 SLP317=
METAR CYSJ 291100Z 02013G21KT 15SM FEW010 BKN035 BKN260 09/08 A3044
RMK SF1SC4CI2 SLP312=

TAF AMD CYSJ 291236Z 2912/2924 02015G25KT P6SM FEW015 BKN030 TEMPO
2912/2918 BKN015
FM291800 02015G25KT P6SM SCT030
FM292200 02010KT P6SM SKC
RMK NXT FCST BY 291800Z=
Your time UTC time
Weather data provided by Environment Canada and NAV CANADA